createdAt,value
2023-03-31T00:02:42.544Z,7.38
2023-03-31T00:07:46.351Z,5.13
2023-03-31T00:12:48.723Z,6.00
2023-03-31T00:17:52.113Z,6.03
2023-03-31T00:22:54.918Z,5.65
2023-03-31T00:27:58.425Z,4.60
2023-03-31T00:33:02.347Z,4.00
2023-03-31T00:38:06.151Z,4.05
2023-03-31T00:43:37.082Z,3.23
2023-03-31T00:48:39.687Z,3.42
2023-03-31T00:53:43.002Z,3.75
2023-03-31T00:58:47.492Z,3.43
2023-03-31T01:03:52.033Z,3.45
2023-03-31T01:08:54.874Z,3.25
2023-03-31T01:13:57.776Z,3.30
2023-03-31T01:19:00.252Z,3.23
2023-03-31T01:24:32.202Z,3.00
2023-03-31T01:30:01.830Z,2.35
2023-03-31T01:35:25.656Z,2.63
2023-03-31T01:40:35.930Z,2.65
2023-03-31T01:46:00.274Z,2.88
2023-03-31T01:51:07.723Z,2.80
2023-03-31T01:56:16.365Z,2.30
2023-03-31T02:01:25.616Z,2.60
2023-03-31T02:06:32.194Z,2.38
2023-03-31T02:11:35.075Z,2.13
2023-03-31T02:16:42.583Z,2.33
2023-03-31T02:21:50.663Z,2.08
2023-03-31T02:27:16.426Z,1.92
2023-03-31T02:32:31.626Z,1.98
2023-03-31T02:37:34.873Z,2.50
2023-03-31T02:42:39.988Z,2.22
2023-03-31T02:47:42.426Z,2.03
2023-03-31T02:52:54.151Z,2.20
2023-03-31T02:57:59.647Z,2.00
2023-03-31T03:03:42.334Z,1.90
2023-03-31T03:09:22.853Z,2.10
2023-03-31T03:14:43.074Z,1.88
2023-03-31T03:19:52.268Z,1.70
2023-03-31T03:24:58.044Z,1.80
2023-03-31T03:30:03.024Z,1.42
2023-03-31T03:35:06.753Z,1.70
2023-03-31T03:40:10.639Z,1.80
2023-03-31T03:45:13.009Z,1.98
2023-03-31T03:50:16.571Z,2.35
2023-03-31T04:00:21.485Z,2.28
2023-03-31T04:05:24.154Z,1.70
2023-03-31T04:10:28.030Z,1.67
2023-03-31T04:20:34.840Z,1.80
2023-03-31T04:25:39.384Z,2.00
2023-03-31T04:30:44.009Z,1.80
2023-03-31T04:35:53.865Z,1.85
2023-03-31T04:40:56.577Z,2.38
2023-03-31T04:45:59.049Z,3.17
2023-03-31T04:51:02.409Z,3.08
2023-03-31T04:56:05.412Z,2.20
2023-03-31T05:01:08.213Z,2.20
2023-03-31T05:06:10.999Z,2.43
2023-03-31T05:11:13.357Z,2.63
2023-03-31T05:16:19.581Z,3.15
2023-03-31T05:21:22.477Z,2.92
2023-03-31T05:26:25.549Z,2.33
2023-03-31T05:31:28.333Z,3.30
2023-03-31T05:36:30.699Z,2.95
2023-03-31T05:41:33.281Z,2.72
2023-03-31T05:46:35.990Z,3.07
2023-03-31T05:51:38.453Z,3.13
2023-03-31T05:56:41.356Z,2.30
2023-03-31T06:01:46.181Z,2.00
2023-03-31T06:06:50.640Z,1.90
2023-03-31T06:11:53.416Z,1.80
2023-03-31T06:16:57.737Z,2.07
2023-03-31T06:22:04.170Z,2.00
2023-03-31T06:27:07.280Z,2.80
2023-03-31T06:32:10.213Z,2.35
2023-03-31T06:37:14.012Z,2.83
2023-03-31T06:42:16.534Z,3.70
2023-03-31T06:47:22.916Z,4.13
2023-03-31T07:12:08.396Z,2.15
2023-03-31T07:17:56.769Z,1.95
2023-03-31T07:23:05.218Z,3.45
2023-03-31T07:28:07.724Z,2.60
2023-03-31T07:33:11.656Z,4.90
2023-03-31T07:38:14.602Z,4.13
2023-03-31T07:43:17.414Z,5.13
2023-03-31T07:48:20.095Z,8.48
2023-03-31T07:53:22.491Z,8.45
2023-03-31T07:58:25.705Z,7.73
2023-03-31T08:03:28.537Z,3.90
2023-03-31T08:08:32.620Z,3.38
2023-03-31T08:13:35.008Z,4.90
2023-03-31T08:18:37.416Z,3.53
2023-03-31T08:23:39.767Z,3.10
2023-03-31T08:28:42.121Z,3.03
2023-03-31T08:33:47.846Z,3.47
2023-03-31T08:38:51.538Z,3.40
2023-03-31T08:43:55.612Z,3.37
2023-03-31T08:48:59.136Z,2.88
2023-03-31T08:54:03.907Z,2.60
2023-03-31T08:59:07.219Z,3.22
2023-03-31T09:04:12.816Z,3.45
2023-03-31T09:09:29.447Z,3.40
2023-03-31T09:14:38.644Z,4.32
2023-03-31T09:20:00.470Z,3.15
2023-03-31T09:25:12.215Z,3.78
2023-03-31T09:30:27.825Z,3.75
2023-03-31T09:35:33.904Z,3.88
2023-03-31T09:40:36.350Z,4.75
2023-03-31T09:45:38.921Z,2.92
2023-03-31T09:50:46.455Z,3.47
2023-03-31T09:55:53.488Z,3.47
2023-03-31T10:01:06.904Z,3.00
2023-03-31T10:06:10.265Z,4.45
2023-03-31T10:16:24.570Z,2.80
2023-03-31T10:21:28.826Z,2.85
2023-03-31T10:26:31.473Z,2.72
2023-03-31T10:31:36.173Z,2.50
2023-03-31T10:36:46.605Z,2.78
2023-03-31T10:41:53.157Z,2.63
2023-03-31T10:46:55.671Z,3.67
2023-03-31T10:52:00.004Z,3.95
2023-03-31T10:57:05.814Z,4.13
2023-03-31T11:02:30.144Z,3.60
2023-03-31T11:07:54.683Z,3.03
2023-03-31T11:13:34.445Z,2.92
2023-03-31T11:18:50.224Z,3.03
2023-03-31T11:24:33.038Z,3.50
2023-03-31T11:29:41.009Z,3.85
2023-03-31T11:35:00.515Z,5.80
2023-03-31T11:40:26.939Z,4.28
2023-03-31T11:45:34.280Z,4.15
2023-03-31T11:50:40.190Z,3.97
2023-03-31T11:55:43.628Z,4.30
2023-03-31T12:06:19.301Z,3.65
2023-03-31T12:11:44.886Z,4.72
2023-03-31T12:16:53.310Z,4.20
2023-03-31T12:22:01.831Z,6.95
2023-03-31T12:27:14.812Z,6.43
2023-03-31T12:32:24.976Z,9.65
2023-03-31T12:37:55.913Z,7.38
2023-03-31T12:43:22.483Z,8.48
2023-03-31T12:48:33.923Z,9.70
2023-03-31T12:54:09.090Z,11.18
2023-03-31T12:59:32.377Z,10.32
2023-03-31T13:04:34.990Z,14.30
2023-03-31T13:09:42.951Z,9.23
2023-03-31T13:14:47.629Z,7.80
2023-03-31T13:19:50.342Z,8.30
2023-03-31T13:24:53.185Z,6.65
2023-03-31T13:29:56.530Z,23.52
2023-03-31T13:40:26.385Z,37.15
2023-03-31T13:45:47.108Z,16.92
2023-03-31T13:51:23.641Z,16.33
2023-03-31T13:56:32.113Z,6.50
2023-03-31T14:01:46.338Z,4.00
2023-03-31T14:07:07.824Z,4.38
2023-03-31T14:12:33.875Z,4.10
2023-03-31T14:17:38.780Z,11.40
2023-03-31T14:22:51.145Z,25.60
2023-03-31T14:28:13.957Z,26.95
2023-03-31T14:33:16.464Z,24.77
2023-03-31T14:38:21.257Z,21.40
2023-03-31T14:43:35.090Z,17.20
2023-03-31T14:48:49.091Z,13.57
2023-03-31T14:54:02.056Z,12.05
2023-03-31T14:59:05.557Z,24.02
2023-03-31T15:09:23.917Z,35.08
2023-03-31T15:14:31.368Z,29.48
2023-03-31T15:19:35.435Z,17.10
2023-03-31T15:24:37.896Z,15.00
2023-03-31T15:29:56.411Z,17.23
2023-03-31T15:40:26.071Z,19.58
2023-03-31T15:45:31.559Z,18.83
2023-03-31T15:50:34.871Z,22.83
2023-03-31T16:01:05.426Z,20.35
2023-03-31T16:06:20.214Z,31.60
2023-03-31T16:11:33.352Z,44.47
2023-03-31T16:16:36.204Z,23.88
2023-03-31T16:21:50.263Z,21.85
2023-03-31T16:26:52.678Z,32.08
2023-03-31T16:32:08.130Z,36.38
2023-03-31T16:37:11.873Z,44.10
2023-03-31T16:42:14.242Z,34.72
2023-03-31T16:47:27.724Z,38.42
2023-03-31T16:52:37.195Z,36.13
2023-03-31T16:57:39.622Z,34.10
2023-03-31T17:02:43.516Z,38.08
2023-03-31T17:07:46.622Z,34.50
2023-03-31T17:12:49.032Z,26.42
2023-03-31T17:17:51.752Z,25.08
2023-03-31T17:22:54.431Z,23.40
2023-03-31T17:27:57.294Z,23.27
2023-03-31T17:33:00.493Z,25.25
2023-03-31T17:38:04.386Z,21.30
2023-03-31T17:43:09.751Z,17.95
2023-03-31T17:48:13.022Z,18.30
2023-03-31T17:53:15.369Z,43.72
2023-03-31T17:58:17.744Z,34.13
2023-03-31T18:03:20.434Z,23.63
2023-03-31T18:08:23.334Z,31.75
2023-03-31T18:13:25.719Z,42.43
2023-03-31T18:18:29.209Z,36.30
2023-03-31T18:28:34.840Z,39.80
2023-03-31T18:33:37.747Z,45.67
2023-03-31T18:38:40.284Z,36.67
2023-03-31T18:43:42.876Z,24.67
2023-03-31T18:48:46.061Z,24.67
2023-03-31T18:53:48.563Z,18.80
2023-03-31T18:58:51.919Z,19.07
2023-03-31T19:03:57.495Z,34.38
2023-03-31T19:09:02.450Z,52.88
2023-03-31T19:14:05.263Z,80.70
2023-03-31T19:19:08.948Z,92.70
2023-03-31T19:24:11.947Z,53.22
2023-03-31T19:29:14.495Z,55.30
2023-03-31T19:34:17.837Z,49.37
2023-03-31T19:39:21.092Z,37.88
2023-03-31T19:44:23.493Z,26.83
2023-03-31T19:49:27.014Z,21.33
2023-03-31T19:54:29.486Z,28.27
2023-03-31T19:59:32.067Z,31.53
2023-03-31T20:04:34.896Z,32.27
2023-03-31T20:09:37.446Z,28.15
2023-03-31T20:14:39.936Z,44.30
2023-03-31T20:19:43.735Z,37.72
2023-03-31T20:24:46.224Z,27.17
2023-03-31T20:29:48.532Z,24.95
2023-03-31T20:34:50.930Z,18.02
2023-03-31T20:39:54.338Z,16.65
2023-03-31T20:49:59.290Z,24.98
2023-03-31T20:55:01.766Z,23.40
2023-03-31T21:00:04.548Z,23.77
2023-03-31T21:05:07.258Z,19.27
2023-03-31T21:10:09.953Z,18.17
2023-03-31T21:15:13.226Z,15.13
2023-03-31T21:25:19.480Z,9.70
2023-03-31T21:35:24.790Z,11.48
2023-03-31T21:40:27.579Z,12.23
2023-03-31T21:45:30.593Z,13.45
2023-03-31T21:50:34.746Z,12.95
2023-03-31T21:55:39.717Z,12.90
2023-03-31T22:00:43.107Z,17.27
2023-03-31T22:05:45.892Z,16.48
2023-03-31T22:10:49.805Z,16.03
2023-03-31T22:15:52.850Z,17.80
2023-03-31T22:20:55.611Z,17.25
2023-03-31T22:25:58.069Z,21.73
2023-03-31T22:31:00.817Z,18.02
2023-03-31T22:36:03.345Z,15.77
2023-03-31T22:41:06.133Z,15.70
2023-03-31T22:46:08.805Z,14.07
2023-03-31T22:51:12.266Z,13.77
2023-03-31T22:56:15.936Z,12.57
2023-03-31T23:01:21.136Z,11.82
2023-03-31T23:06:24.105Z,12.00
2023-03-31T23:11:26.505Z,12.67
2023-03-31T23:16:29.311Z,12.88
2023-03-31T23:21:32.796Z,12.23
2023-03-31T23:26:35.299Z,12.02
2023-03-31T23:31:37.945Z,12.80
2023-03-31T23:36:40.793Z,12.45
2023-03-31T23:41:43.168Z,11.80
2023-03-31T23:46:46.581Z,11.30
2023-03-31T23:51:48.995Z,11.35
2023-03-31T23:56:51.544Z,12.05
